WBKWWBKS

Guest
Details From WBKW - Tawau
To WBKS - Sandakan
Flight Number -
Tags generated
Created
Modified
Stats Distance 96 nm / 178 km
Max Altitude 400 ft / 122 m
Waypoints 3
Social Downloads 0
Likes 0
Share

Download

Looking for another format? Having issues loading an existing format? Contact us
Advertisement - Login to hide

Notes

Basic altitude profile: - Ascent Rate: 2500ft/min - Ascent Speed: 250kts - Cruise Altitude: 35000ft - Cruise Speed: 420kts - Descent Rate: 1500ft/min - Descent Speed: 250kts Options: - Use NATs: yes - Use PACOTS: yes - Use low airways: yes - Use high airways: yes

Route

WBKW VTW WBKS

ID Type Via Altitude (ft/m) Position (lat/lon) Dist (leg/tot) Name
O WBKW APT - 0 / 0 4.31337 / 118.12195 - / 0 nm Tawau
VTW VOR - 400 / 122 4.32452 / 118.13991 1 / 1 nm TAWAU VOR-DME
O WBKS APT - 0 / 0 5.90090 / 118.05949 94 / 96 nm Sandakan

Altitude Profile

Advertisement - Login to hide

WBKW

Details ICAO WBKW (TWU)
Name Tawau
Region Brunei and Malaysia
Timezone Asia/Kuching (UTC+8.0)
Stats Elevation 57 ft / 17 m (AMSL)
Location 4.313370° 118.122000°
Runways 1
Magnetic Variation 0.546° W

METAR

WBKW 251300Z 00000KT 9999 FEW017 SCT030 25/24 Q1009

Decode

TAF

TAF WBKW 251100Z 2512/2612 VRB03KT 9999 FEW016

Decode

Departure Runways

ID Width Length Bearing (true/mag) Surface Threshold Overrun Markings Lighting
06 155 ft / 47 m 8,826 ft / 2,690 m 58.02° / 58.56° ASPHALT 0 ft / 0 m 195 ft / 59 m APP EDGE THRESHOLD
24 155 ft / 47 m 8,826 ft / 2,690 m 238.02° / 238.56° ASPHALT 0 ft / 0 m 195 ft / 59 m PREC-APP EDGE THRESHOLD

WBKS

Details ICAO WBKS (SDK)
Name Sandakan
Region Brunei and Malaysia
Timezone Asia/Kuching (UTC+8.0)
Stats Elevation 46 ft / 14 m (AMSL)
Location 5.900900° 118.059000°
Runways 1
Magnetic Variation 0.776° W

METAR

WBKS 251300Z VRB02KT 9999 -RA FEW015 26/25 Q1009

Decode

TAF

TAF WBKS 251100Z 2512/2612 25005KT 9999 FEW015 FEW016CB TEMPO 2512/2516 5000 RA FEW010 FEW016CB SCT040

Decode

Destination Runways

ID Width Length Bearing (true/mag) Surface Threshold Overrun Markings Lighting
08 151 ft / 46 m 7,010 ft / 2,137 m 80.56° / 81.34° ASPHALT 0 ft / 0 m 198 ft / 60 m PREC-APP EDGE THRESHOLD REIL-OMNI
26 151 ft / 46 m 7,010 ft / 2,137 m 260.56° / 261.34° ASPHALT 0 ft / 0 m 198 ft / 60 m APP EDGE THRESHOLD REIL-OMNI

Approach Navaids

Runway Type Ident Frequency Range Bearing (true/mag) Slope Elevation
08 DME ISKN 109.30 MHz 18 nm / 33 km - - 46 ft / 14 m (AMSL)
08 LOC-ILS ISKN 109.30 MHz 18 nm / 33 km 80.48° / 81.26 ° - 46 ft / 14 m (AMSL)
08 GS ISKN 109.30 MHz 10 nm / 19 km 81.12° / 81.90 ° 3.00° 46 ft / 14 m (AMSL)

Popular Alternatives